Time;durP1;ratioP1;P1;durP2;ratioP2;P2;SDS_P1;SDS_P2;PMS_P1;PMS_P2;Temp;Humidity;BMP_temperature;BMP_pressure;BME280_temperature;BME280_humidity;BME280_pressure;Samples;Min_cycle;Max_cycle;Signal;HPM_P1;HPM_P2
2022/07/28 00:00:45;;;;;;;1.20;1.20;;;16.30;99.90;;;;;;4998115;28;20573;-71
2022/07/28 00:03:12;;;;;;;1.57;1.17;;;16.30;99.90;;;;;;4998272;28;20190;-70
2022/07/28 00:05:37;;;;;;;2.47;1.67;;;16.20;99.90;;;;;;4997823;28;20184;-71
2022/07/28 00:08:04;;;;;;;6.17;2.00;;;15.90;99.90;;;;;;4993735;28;20186;-71
2022/07/28 00:10:31;;;;;;;2.77;1.50;;;15.70;99.90;;;;;;5003541;28;20653;-73
2022/07/28 00:12:58;;;;;;;6.00;1.73;;;15.40;99.90;;;;;;4998026;28;20277;-71
2022/07/28 00:15:24;;;;;;;1.87;1.50;;;14.80;99.90;;;;;;5009984;28;20194;-71
2022/07/28 00:17:50;;;;;;;3.20;1.30;;;11.20;99.90;;;;;;4997869;28;20261;-73
2022/07/28 00:20:16;;;;;;;5.90;1.60;;;10.10;99.90;;;;;;4997938;28;20267;-71
2022/07/28 00:22:43;;;;;;;2.43;1.43;;;10.50;99.90;;;;;;4997457;28;20189;-72
2022/07/28 00:25:09;;;;;;;4.83;1.70;;;10.20;99.90;;;;;;5000713;28;20188;-71
2022/07/28 00:27:35;;;;;;;2.53;1.63;;;6.20;99.90;;;;;;4997728;28;20174;-71
2022/07/28 00:30:06;;;;;;;3.60;1.90;;;6.10;99.90;;;;;;5010201;28;20186;-71
2022/07/28 00:32:31;;;;;;;4.73;1.63;;;5.00;99.90;;;;;;4997453;28;20457;-71
2022/07/28 00:34:57;;;;;;;8.63;1.77;;;5.60;99.90;;;;;;4997850;28;20257;-71
2022/07/28 00:37:23;;;;;;;5.30;1.63;;;5.60;99.90;;;;;;4997297;28;20264;-72
2022/07/28 00:39:49;;;;;;;1.90;1.63;;;6.50;99.90;;;;;;4997781;28;20186;-70
2022/07/28 00:42:19;;;;;;;2.30;1.90;;;5.60;99.90;;;;;;4997579;28;20180;-71
2022/07/28 00:44:45;;;;;;;1.67;1.53;;;5.30;99.90;;;;;;5009772;28;20189;-71
2022/07/28 00:47:11;;;;;;;3.77;1.77;;;5.30;99.90;;;;;;4997531;28;20256;-71
2022/07/28 00:49:37;;;;;;;2.03;1.60;;;5.10;99.90;;;;;;5009838;28;20182;-71
2022/07/28 00:52:08;;;;;;;1.50;1.30;;;4.80;99.90;;;;;;4997299;28;20583;-71
2022/07/28 00:54:33;;;;;;;4.33;2.03;;;4.50;99.90;;;;;;4996682;28;20683;-72
2022/07/28 00:56:59;;;;;;;1.27;1.07;;;4.10;99.90;;;;;;4997485;28;20200;-71
2022/07/28 00:59:25;;;;;;;4.70;2.10;;;3.80;99.90;;;;;;4996892;28;20245;-72
2022/07/28 01:01:52;;;;;;;1.73;1.63;;;4.30;99.90;;;;;;4997011;28;20178;-71
2022/07/28 01:04:19;;;;;;;3.70;2.40;;;4.30;99.90;;;;;;4997109;28;20174;-71
2022/07/28 01:07:37;;;;;;;3.33;1.63;;;4.20;99.90;;;;;;4996786;28;20270;-72
2022/07/28 01:10:18;;;;;;;2.90;1.80;;;3.60;99.90;;;;;;4992601;28;20347;-71
2022/07/28 01:13:26;;;;;;;4.97;1.20;;;3.80;99.90;;;;;;5008756;28;20496;-72
2022/07/28 01:16:02;;;;;;;4.37;1.53;;;3.80;99.90;;;;;;4995557;28;20520;-71
2022/07/28 01:18:35;;;;;;;3.47;1.67;;;4.10;99.90;;;;;;5008789;28;20257;-71
2022/07/28 01:21:09;;;;;;;1.10;1.07;;;4.00;99.90;;;;;;4996739;28;20185;-71
2022/07/28 01:24:12;;;;;;;5.73;2.30;;;4.00;99.90;;;;;;4996204;28;20181;-72
2022/07/28 01:27:00;;;;;;;2.50;1.60;;;4.00;99.90;;;;;;4996326;28;20196;-73
2022/07/28 01:29:44;;;;;;;1.73;1.33;;;3.70;99.90;;;;;;4996571;28;20186;-72
2022/07/28 01:32:20;;;;;;;3.13;1.60;;;11.20;99.90;;;;;;5010996;28;20181;-71
2022/07/28 01:35:06;;;;;;;6.10;2.10;;;13.60;99.90;;;;;;4996311;28;20213;-71
2022/07/28 01:37:37;;;;;;;2.13;1.43;;;14.80;99.90;;;;;;4995915;28;20378;-71
2022/07/28 01:40:05;;;;;;;3.47;2.60;;;15.10;99.90;;;;;;5010548;28;20186;-70
2022/07/28 01:42:37;;;;;;;6.40;3.20;;;15.20;99.90;;;;;;5001049;28;20313;-71
2022/07/28 01:45:05;;;;;;;1.87;1.50;;;15.30;99.90;;;;;;5008378;28;20182;-71
2022/07/28 01:47:33;;;;;;;2.20;1.43;;;15.10;99.90;;;;;;4995932;28;20214;-74
2022/07/28 01:50:02;;;;;;;3.37;1.33;;;13.20;99.90;;;;;;4995049;28;20258;-73
2022/07/28 01:52:30;;;;;;;1.50;1.40;;;3.70;99.90;;;;;;4995696;28;20188;-72
2022/07/28 01:54:58;;;;;;;2.37;1.40;;;4.80;99.90;;;;;;4995613;28;20209;-71
2022/07/28 01:57:26;;;;;;;2.90;1.70;;;4.20;99.90;;;;;;4999821;28;20184;-71
2022/07/28 01:59:53;;;;;;;2.33;1.90;;;3.80;99.90;;;;;;4996126;28;20182;-71
2022/07/28 02:02:20;;;;;;;2.80;1.50;;;3.50;99.90;;;;;;4996408;28;20186;-70
2022/07/28 02:04:47;;;;;;;6.07;2.33;;;4.90;99.90;;;;;;4995983;28;20265;-73
2022/07/28 02:07:16;;;;;;;1.73;1.63;;;7.20;99.90;;;;;;4995437;28;20521;-70
2022/07/28 02:09:44;;;;;;;4.17;2.03;;;10.90;99.90;;;;;;4995770;28;20196;-71
2022/07/28 02:12:13;;;;;;;1.77;1.10;;;14.90;99.90;;;;;;4996313;28;20189;-71
2022/07/28 02:14:41;;;;;;;4.37;1.50;;;15.00;99.90;;;;;;4995569;28;20238;-72
2022/07/28 02:17:15;;;;;;;7.20;1.83;;;15.00;99.90;;;;;;4996128;28;20182;-72
2022/07/28 02:19:43;;;;;;;4.60;1.63;;;15.00;99.90;;;;;;4999669;28;20204;-70
2022/07/28 02:22:10;;;;;;;4.53;1.83;;;14.90;99.90;;;;;;4995538;28;20553;-71
2022/07/28 02:24:37;;;;;;;8.70;1.40;;;14.90;99.90;;;;;;4995687;28;20215;-70
2022/07/28 02:27:33;;;;;;;2.17;1.70;;;14.80;99.90;;;;;;4995903;28;20192;-71
2022/07/28 02:30:05;;;;;;;3.50;1.53;;;14.80;99.90;;;;;;4994827;28;20631;-72
2022/07/28 02:32:52;;;;;;;1.70;1.60;;;14.80;99.90;;;;;;4994927;28;20182;-72
2022/07/28 02:35:23;;;;;;;1.50;1.40;;;14.80;99.90;;;;;;5007868;28;20185;-72
2022/07/28 02:37:56;;;;;;;4.57;2.60;;;14.70;99.90;;;;;;4998058;28;20244;-72
2022/07/28 02:40:22;;;;;;;2.60;1.13;;;14.70;99.90;;;;;;4999530;28;20578;-71
2022/07/28 02:42:50;;;;;;;4.83;2.10;;;14.60;99.90;;;;;;4999590;28;20232;-71
2022/07/28 02:45:19;;;;;;;5.37;1.90;;;14.60;99.90;;;;;;4999452;28;20235;-71
2022/07/28 02:47:50;;;;;;;8.07;2.13;;;14.60;99.90;;;;;;4999385;28;20213;-71
2022/07/28 02:50:20;;;;;;;4.13;1.40;;;14.60;99.90;;;;;;4999206;28;20321;-71
2022/07/28 02:52:48;;;;;;;2.37;1.53;;;14.60;99.90;;;;;;4999171;28;20193;-70
2022/07/28 02:55:15;;;;;;;4.83;1.73;;;14.60;99.90;;;;;;4999565;28;20577;-71
2022/07/28 02:57:43;;;;;;;5.93;3.23;;;14.60;99.90;;;;;;5015172;28;20174;-71
2022/07/28 03:00:10;;;;;;;3.97;2.00;;;14.60;99.90;;;;;;5000018;28;20197;-72
2022/07/28 03:02:38;;;;;;;4.87;2.03;;;14.60;99.90;;;;;;4999215;28;20193;-71
2022/07/28 03:05:06;;;;;;;3.50;1.60;;;14.50;99.90;;;;;;5004455;28;20188;-72
2022/07/28 03:07:35;;;;;;;2.17;1.33;;;14.60;99.90;;;;;;4999182;28;20593;-71
2022/07/28 03:10:02;;;;;;;2.10;1.83;;;14.60;99.90;;;;;;4999167;28;20178;-71
2022/07/28 03:12:28;;;;;;;2.87;1.60;;;14.60;99.90;;;;;;5009935;28;20590;-72
2022/07/28 03:14:54;;;;;;;2.33;1.57;;;14.50;99.90;;;;;;5007833;28;20219;-71
2022/07/28 03:17:20;;;;;;;3.13;1.93;;;14.50;99.90;;;;;;4999198;28;20186;-73
2022/07/28 03:19:46;;;;;;;5.50;2.33;;;14.50;99.90;;;;;;4998937;28;20190;-71
2022/07/28 03:22:12;;;;;;;2.30;1.37;;;14.50;99.90;;;;;;4998911;28;20193;-71
2022/07/28 03:24:49;;;;;;;3.60;1.60;;;14.50;99.90;;;;;;4998859;28;20189;-71
2022/07/28 03:27:25;;;;;;;3.60;2.00;;;14.50;99.90;;;;;;4999831;28;20181;-72
2022/07/28 03:30:02;;;;;;;3.17;1.70;;;14.40;99.90;;;;;;4999130;28;20205;-71
2022/07/28 03:32:31;;;;;;;3.03;1.70;;;14.50;99.90;;;;;;5010766;28;20178;-71
2022/07/28 03:34:57;;;;;;;4.73;1.70;;;14.60;99.90;;;;;;4999342;28;20509;-72
2022/07/28 03:37:31;;;;;;;4.30;1.97;;;14.50;99.90;;;;;;4998942;28;20177;-72
2022/07/28 03:39:59;;;;;;;2.13;1.80;;;14.40;99.90;;;;;;5013643;28;20245;-71
2022/07/28 03:42:25;;;;;;;2.77;1.63;;;14.40;99.90;;;;;;5003445;28;20189;-72
2022/07/28 03:44:52;;;;;;;1.80;1.40;;;14.40;99.90;;;;;;5004856;28;20186;-72
2022/07/28 03:47:24;;;;;;;2.17;1.57;;;14.30;99.90;;;;;;5009656;28;20206;-71
2022/07/28 03:49:50;;;;;;;1.30;1.20;;;14.20;99.90;;;;;;5006116;28;20268;-71
2022/07/28 03:52:17;;;;;;;3.67;1.93;;;14.20;99.90;;;;;;4999276;28;20229;-72
2022/07/28 03:54:44;;;;;;;2.53;1.40;;;14.20;99.90;;;;;;4998711;28;20258;-72
2022/07/28 03:57:10;;;;;;;2.27;1.77;;;14.20;99.90;;;;;;5011668;28;20209;-72
2022/07/28 03:59:35;;;;;;;8.40;1.87;;;14.20;99.90;;;;;;4998285;28;20186;-71
2022/07/28 04:02:01;;;;;;;1.70;1.60;;;14.20;99.90;;;;;;4997888;28;20254;-72
2022/07/28 04:04:27;;;;;;;3.13;2.10;;;14.20;99.90;;;;;;4998153;28;20178;-72
2022/07/28 04:06:53;;;;;;;6.00;2.33;;;14.20;99.90;;;;;;4997853;28;20182;-71
2022/07/28 04:09:19;;;;;;;1.80;1.53;;;14.20;99.90;;;;;;4998140;28;20178;-71
2022/07/28 04:11:45;;;;;;;6.30;2.23;;;14.20;99.90;;;;;;4997949;28;20182;-72
2022/07/28 04:14:10;;;;;;;2.13;1.40;;;14.20;99.90;;;;;;5013409;28;20206;-72
2022/07/28 04:16:36;;;;;;;4.90;1.23;;;14.20;99.90;;;;;;4997882;28;20272;-72
2022/07/28 04:19:02;;;;;;;5.10;1.67;;;14.20;99.90;;;;;;4997663;28;20181;-72
2022/07/28 04:21:28;;;;;;;3.70;2.00;;;14.30;99.90;;;;;;4997595;28;20178;-72
2022/07/28 04:23:53;;;;;;;1.93;1.40;;;14.30;99.90;;;;;;4997722;28;20581;-72
2022/07/28 04:26:19;;;;;;;3.10;1.67;;;14.30;99.90;;;;;;4997685;28;20178;-71
2022/07/28 04:28:45;;;;;;;8.73;2.10;;;14.30;99.90;;;;;;4997584;28;20189;-70
2022/07/28 04:31:11;;;;;;;3.50;1.30;;;14.30;99.90;;;;;;4997474;28;20495;-71
2022/07/28 04:33:37;;;;;;;2.73;1.33;;;14.30;99.90;;;;;;4997068;28;20206;-68
2022/07/28 04:36:03;;;;;;;1.70;1.57;;;14.30;99.90;;;;;;5011175;28;20630;-72
2022/07/28 04:38:29;;;;;;;2.77;1.80;;;14.30;99.90;;;;;;4998629;28;20220;-71
2022/07/28 04:40:56;;;;;;;2.73;1.80;;;14.20;99.90;;;;;;4997597;28;20186;-72
2022/07/28 04:43:22;;;;;;;5.00;1.93;;;14.20;99.90;;;;;;4997327;28;20661;-71
2022/07/28 04:45:49;;;;;;;8.13;2.13;;;14.20;99.90;;;;;;4997057;28;20270;-71
2022/07/28 04:48:16;;;;;;;3.90;1.60;;;14.20;99.90;;;;;;4997111;28;20206;-72
2022/07/28 04:50:44;;;;;;;2.30;2.10;;;14.10;99.90;;;;;;4997551;28;20244;-71
2022/07/28 04:53:11;;;;;;;6.80;1.80;;;14.10;99.90;;;;;;4998300;28;20205;-71
2022/07/28 04:55:38;;;;;;;2.97;2.37;;;14.10;99.90;;;;;;4997586;28;20317;-72
2022/07/28 04:58:04;;;;;;;2.83;1.50;;;14.10;99.90;;;;;;4997061;28;20178;-71
2022/07/28 05:00:33;;;;;;;3.07;2.03;;;14.10;99.90;;;;;;5008385;28;20264;-71
2022/07/28 05:03:01;;;;;;;3.77;2.07;;;13.90;99.90;;;;;;4997057;28;20185;-71
2022/07/28 05:05:27;;;;;;;3.03;1.63;;;13.90;99.90;;;;;;4997962;28;20181;-71
2022/07/28 05:07:53;;;;;;;6.20;2.20;;;13.80;99.90;;;;;;4998021;28;20189;-72
2022/07/28 05:10:19;;;;;;;1.90;1.70;;;13.80;99.90;;;;;;4997337;28;20510;-72
2022/07/28 05:12:46;;;;;;;1.83;1.57;;;13.70;99.90;;;;;;4996894;28;20183;-72
2022/07/28 05:15:12;;;;;;;4.03;1.87;;;13.60;99.90;;;;;;4999253;28;20605;-72
2022/07/28 05:17:38;;;;;;;5.03;2.40;;;13.40;99.90;;;;;;5006618;28;20182;-71
2022/07/28 05:20:07;;;;;;;2.50;1.90;;;13.00;99.90;;;;;;5005577;28;20221;-74
2022/07/28 05:22:44;;;;;;;2.10;1.90;;;12.00;99.90;;;;;;4997486;28;20182;-71
2022/07/28 05:25:14;;;;;;;9.40;2.47;;;12.10;99.90;;;;;;4997193;28;20222;-73
2022/07/28 05:27:40;;;;;;;9.90;2.20;;;12.20;99.90;;;;;;4997111;28;20261;-70
2022/07/28 05:30:07;;;;;;;2.93;1.80;;;12.20;99.90;;;;;;5000710;28;20265;-71
2022/07/28 05:32:52;;;;;;;3.30;1.70;;;12.30;99.90;;;;;;5001333;28;20519;-73
2022/07/28 05:35:18;;;;;;;4.70;1.50;;;12.30;99.90;;;;;;5007997;28;20510;-69
2022/07/28 05:37:44;;;;;;;6.77;2.40;;;12.30;99.90;;;;;;5005159;28;20216;-72
2022/07/28 05:40:13;;;;;;;3.43;2.07;;;12.30;99.90;;;;;;5000481;28;20258;-71
2022/07/28 05:42:41;;;;;;;13.73;1.83;;;12.40;99.90;;;;;;5007859;28;20183;-73
2022/07/28 05:45:07;;;;;;;3.93;2.23;;;12.40;99.90;;;;;;4996052;28;20188;-72
2022/07/28 05:47:47;;;;;;;2.10;1.80;;;12.50;99.90;;;;;;4995654;28;20236;-70
2022/07/28 05:50:15;;;;;;;9.60;2.40;;;12.60;99.90;;;;;;5006749;28;20181;-74
2022/07/28 05:52:41;;;;;;;2.10;1.83;;;12.50;99.90;;;;;;5000358;28;20205;-74
2022/07/28 05:55:08;;;;;;;5.67;2.10;;;12.60;99.90;;;;;;5010546;28;20186;-73
2022/07/28 05:57:35;;;;;;;2.80;2.00;;;12.70;99.90;;;;;;5009507;28;20179;-73
2022/07/28 06:00:03;;;;;;;5.17;2.50;;;12.80;99.90;;;;;;4996020;28;20204;-72
2022/07/28 06:02:29;;;;;;;3.13;2.53;;;12.90;99.90;;;;;;4996968;28;20555;-72
2022/07/28 06:04:56;;;;;;;3.47;2.27;;;12.70;99.90;;;;;;4961445;28;20173;-72
2022/07/28 06:07:22;;;;;;;4.60;2.17;;;12.50;99.90;;;;;;4987944;28;20186;-73
2022/07/28 06:09:47;;;;;;;9.73;2.33;;;15.30;99.90;;;;;;4993370;28;20188;-73
2022/07/28 06:12:13;;;;;;;5.87;2.07;;;15.50;99.90;;;;;;4997085;28;20186;-73
2022/07/28 06:14:39;;;;;;;4.73;2.30;;;15.70;99.90;;;;;;5001894;28;20761;-73
2022/07/28 06:17:05;;;;;;;4.83;2.20;;;15.90;99.90;;;;;;5005145;28;20196;-75
2022/07/28 06:19:30;;;;;;;4.23;2.20;;;16.10;99.90;;;;;;5010453;28;20459;-73
2022/07/28 06:21:56;;;;;;;3.13;2.13;;;16.20;99.90;;;;;;5002078;28;20178;-72
2022/07/28 06:24:22;;;;;;;7.67;2.27;;;16.30;99.90;;;;;;5005647;28;20185;-73
2022/07/28 06:26:48;;;;;;;2.80;1.80;;;16.60;99.90;;;;;;5007092;28;20211;-73
2022/07/28 06:29:13;;;;;;;5.53;2.50;;;16.70;99.90;;;;;;5006806;28;20188;-73
2022/07/28 06:31:39;;;;;;;2.83;1.40;;;16.80;99.90;;;;;;5000242;28;20590;-73
2022/07/28 06:34:05;;;;;;;4.77;2.37;;;16.90;99.90;;;;;;4993483;28;20217;-72
2022/07/28 06:36:31;;;;;;;2.87;2.47;;;17.10;99.90;;;;;;4998161;28;20259;-73
2022/07/28 06:38:57;;;;;;;7.23;1.83;;;17.10;99.90;;;;;;4999030;28;20239;-73
2022/07/28 06:41:23;;;;;;;3.87;2.90;;;17.10;99.90;;;;;;4999908;28;20242;-74
2022/07/28 06:43:51;;;;;;;7.17;3.00;;;17.10;99.90;;;;;;4995236;28;20209;-76
2022/07/28 06:46:18;;;;;;;3.80;1.70;;;16.80;99.90;;;;;;5001770;28;20178;-75
2022/07/28 06:48:44;;;;;;;3.97;2.30;;;16.40;99.90;;;;;;4999993;28;20198;-74
2022/07/28 06:51:11;;;;;;;3.77;1.77;;;15.40;99.90;;;;;;4996945;28;20198;-75
2022/07/28 06:53:37;;;;;;;5.03;1.70;;;15.20;99.90;;;;;;4998198;28;20296;-74
2022/07/28 06:56:04;;;;;;;6.60;1.50;;;14.50;99.90;;;;;;4994323;28;20261;-77
2022/07/28 06:58:30;;;;;;;5.30;1.70;;;16.20;99.90;;;;;;4996307;28;20198;-76
2022/07/28 07:00:56;;;;;;;4.53;2.33;;;14.50;99.90;;;;;;5004114;28;20622;-76
2022/07/28 07:03:22;;;;;;;7.50;2.13;;;13.50;99.90;;;;;;4999521;28;20608;-76
2022/07/28 07:05:47;;;;;;;6.00;2.07;;;11.60;99.90;;;;;;4994705;28;20186;-76
2022/07/28 07:08:13;;;;;;;3.70;2.03;;;7.10;99.90;;;;;;5001534;28;20233;-75
2022/07/28 07:10:39;;;;;;;11.20;2.17;;;8.10;99.90;;;;;;5000813;28;20540;-76
2022/07/28 07:13:05;;;;;;;4.30;2.13;;;8.40;99.90;;;;;;5005446;28;20185;-75
2022/07/28 07:15:31;;;;;;;2.43;2.00;;;8.00;99.90;;;;;;5007266;28;20518;-75
2022/07/28 07:17:56;;;;;;;3.37;2.10;;;8.50;99.90;;;;;;4998573;28;20179;-75
2022/07/28 07:20:23;;;;;;;2.00;1.73;;;8.20;99.90;;;;;;4999435;28;20652;-75
2022/07/28 07:22:49;;;;;;;3.97;1.50;;;8.50;99.90;;;;;;4995548;28;20197;-76
2022/07/28 07:25:17;;;;;;;3.67;1.33;;;8.70;99.90;;;;;;4999725;28;20190;-75
2022/07/28 07:27:43;;;;;;;1.93;1.77;;;8.40;99.90;;;;;;5001730;28;20190;-75
2022/07/28 07:30:11;;;;;;;3.93;1.30;;;8.30;99.90;;;;;;5003777;28;20255;-76
2022/07/28 07:32:37;;;;;;;4.13;1.47;;;8.20;99.90;;;;;;5001958;28;20186;-77
2022/07/28 07:35:04;;;;;;;2.17;1.53;;;8.40;99.90;;;;;;5004075;28;20224;-75
2022/07/28 07:37:33;;;;;;;2.67;1.57;;;8.60;99.90;;;;;;5006158;28;20181;-74
2022/07/28 07:40:01;;;;;;;7.47;2.47;;;8.80;99.90;;;;;;4999672;28;20190;-76
2022/07/28 07:42:27;;;;;;;1.73;1.20;;;8.60;99.90;;;;;;5012653;28;20547;-76
2022/07/28 07:44:53;;;;;;;4.50;1.10;;;8.80;99.90;;;;;;4998818;28;20475;-78
2022/07/28 07:47:19;;;;;;;9.57;2.53;;;8.80;99.90;;;;;;4999611;28;20817;-77
2022/07/28 07:49:45;;;;;;;2.10;1.40;;;8.30;99.90;;;;;;5013133;28;20182;-75
2022/07/28 07:52:11;;;;;;;7.57;1.70;;;8.30;99.90;;;;;;5010056;28;20563;-74
2022/07/28 07:54:37;;;;;;;1.63;1.23;;;8.70;99.90;;;;;;5006978;28;20220;-75
2022/07/28 07:57:03;;;;;;;4.67;2.07;;;9.30;99.90;;;;;;4998480;28;20193;-74
2022/07/28 07:59:29;;;;;;;1.90;1.40;;;9.40;99.90;;;;;;4998430;28;20485;-75
2022/07/28 08:01:56;;;;;;;4.03;1.70;;;9.80;99.90;;;;;;4998669;28;20190;-74
2022/07/28 08:04:23;;;;;;;2.20;1.93;;;10.50;99.90;;;;;;5013593;28;20268;-75
2022/07/28 08:06:49;;;;;;;5.70;2.50;;;10.60;99.90;;;;;;5005685;28;20193;-76
2022/07/28 08:09:16;;;;;;;2.83;1.60;;;10.50;99.90;;;;;;5004879;28;20600;-77
2022/07/28 08:11:42;;;;;;;5.17;1.77;;;11.30;99.90;;;;;;5011292;28;20593;-74
2022/07/28 08:14:08;;;;;;;4.37;2.30;;;11.90;99.90;;;;;;4997476;28;20214;-75
2022/07/28 08:16:35;;;;;;;4.30;2.47;;;12.00;99.90;;;;;;4997607;28;20272;-75
2022/07/28 08:19:01;;;;;;;6.47;1.77;;;12.70;99.90;;;;;;5001223;28;20214;-76
2022/07/28 08:21:27;;;;;;;4.33;1.57;;;12.40;99.90;;;;;;5001894;28;20193;-75
2022/07/28 08:23:57;;;;;;;2.23;1.57;;;13.00;99.90;;;;;;5000315;28;20264;-75
2022/07/28 08:26:28;;;;;;;1.97;0.87;;;18.80;99.90;;;;;;5008500;28;20264;-76
2022/07/28 08:28:54;;;;;;;5.83;2.07;;;19.00;99.90;;;;;;4996498;28;20186;-76
2022/07/28 08:31:23;;;;;;;2.60;1.50;;;16.30;99.90;;;;;;4994665;28;20198;-75
2022/07/28 08:33:49;;;;;;;5.17;1.50;;;12.30;99.00;;;;;;4997511;28;20241;-75
2022/07/28 08:36:15;;;;;;;4.10;1.70;;;13.10;98.80;;;;;;5011495;28;20240;-74
2022/07/28 08:38:41;;;;;;;8.60;1.67;;;12.50;98.90;;;;;;5003168;28;20188;-77
2022/07/28 08:41:19;;;;;;;5.17;1.33;;;11.90;98.30;;;;;;4999732;28;20182;-77
2022/07/28 08:43:48;;;;;;;2.47;1.00;;;11.90;98.40;;;;;;4996507;28;20192;-76
2022/07/28 08:46:16;;;;;;;3.73;1.67;;;12.00;98.10;;;;;;5001065;28;20190;-76
2022/07/28 08:48:42;;;;;;;3.63;1.20;;;11.50;98.00;;;;;;5001844;28;20225;-75
2022/07/28 08:51:10;;;;;;;2.37;1.50;;;10.60;98.50;;;;;;5002834;28;20277;-75
2022/07/28 08:53:38;;;;;;;5.87;1.50;;;10.00;97.90;;;;;;5001635;28;20209;-75
2022/07/28 08:56:06;;;;;;;1.17;1.03;;;10.00;98.20;;;;;;5002850;28;20244;-76
2022/07/28 08:58:36;;;;;;;1.63;1.50;;;10.00;98.40;;;;;;5000100;28;20182;-76
2022/07/28 09:01:02;;;;;;;1.70;1.33;;;10.40;98.20;;;;;;4997502;28;20182;-76
2022/07/28 09:03:33;;;;;;;4.53;1.30;;;10.30;97.50;;;;;;4996691;28;20236;-74
2022/07/28 09:05:58;;;;;;;5.20;1.80;;;10.90;98.20;;;;;;5000718;28;20182;-76
2022/07/28 09:08:25;;;;;;;4.10;2.07;;;11.70;98.40;;;;;;5000619;28;20192;-77
2022/07/28 09:10:51;;;;;;;5.50;1.27;;;12.20;98.00;;;;;;4997499;28;20190;-75
2022/07/28 09:13:18;;;;;;;3.20;1.67;;;13.00;97.50;;;;;;4996910;28;20206;-76
2022/07/28 09:15:46;;;;;;;5.30;1.63;;;12.00;97.20;;;;;;4997891;28;20198;-75
2022/07/28 09:18:16;;;;;;;1.37;1.10;;;13.00;98.00;;;;;;5000101;28;20189;-73
2022/07/28 09:20:43;;;;;;;1.50;1.33;;;13.20;98.30;;;;;;5007261;28;20597;-75
2022/07/28 09:23:11;;;;;;;3.90;1.23;;;12.60;97.40;;;;;;5003041;28;20178;-74
2022/07/28 09:25:38;;;;;;;2.67;1.00;;;12.20;95.90;;;;;;4999213;28;20269;-75
2022/07/28 09:28:08;;;;;;;1.53;1.37;;;11.90;95.80;;;;;;5004888;28;20182;-74
2022/07/28 09:30:37;;;;;;;2.00;1.50;;;11.50;96.20;;;;;;4997013;28;20262;-74
2022/07/28 09:33:20;;;;;;;4.67;1.53;;;11.80;97.00;;;;;;5003303;28;20604;-75
2022/07/28 09:35:51;;;;;;;2.40;0.93;;;11.30;95.70;;;;;;4997217;28;20185;-74
2022/07/28 09:38:19;;;;;;;2.80;1.07;;;10.40;94.80;;;;;;5003071;28;20178;-73
2022/07/28 09:41:05;;;;;;;7.50;1.30;;;9.50;94.90;;;;;;5013832;28;20539;-74
2022/07/28 09:43:42;;;;;;;4.40;1.20;;;21.60;98.40;;;;;;5006423;28;20186;-76
2022/07/28 09:46:12;;;;;;;2.70;1.10;;;21.60;97.40;;;;;;5004025;28;20190;-74
2022/07/28 09:48:58;;;;;;;1.50;1.10;;;21.60;97.20;;;;;;5003575;28;20189;-74
2022/07/28 09:51:32;;;;;;;7.03;1.20;;;21.70;96.90;;;;;;5016173;28;20189;-74
2022/07/28 09:54:14;;;;;;;3.13;0.90;;;21.70;97.80;;;;;;5008952;28;20482;-75
2022/07/28 09:56:42;;;;;;;1.50;1.40;;;21.80;97.60;;;;;;4997843;28;20174;-74
2022/07/28 09:59:09;;;;;;;6.13;1.77;;;0.10;90.10;;;;;;5006183;28;20272;-74
2022/07/28 10:01:52;;;;;;;1.77;0.93;;;0.50;90.90;;;;;;4998717;28;20287;-75
2022/07/28 10:04:38;;;;;;;2.00;1.13;;;-9.80;82.30;;;;;;4996119;28;20186;-74
2022/07/28 10:07:15;;;;;;;3.40;1.80;;;-19.10;78.60;;;;;;4999060;28;20283;-78
2022/07/28 10:09:41;;;;;;;3.30;1.00;;;-25.50;69.50;;;;;;4995809;28;20190;-74
2022/07/28 10:12:14;;;;;;;4.27;1.50;;;-27.20;67.60;;;;;;5001060;28;20190;-72
2022/07/28 10:14:40;;;;;;;1.60;1.37;;;-24.90;68.20;;;;;;4995251;28;20260;-76
2022/07/28 10:17:06;;;;;;;3.87;1.40;;;-35.50;62.80;;;;;;4999459;28;20269;-72
2022/07/28 10:19:32;;;;;;;3.33;1.43;;;-13.50;76.30;;;;;;4997444;28;20185;-76
2022/07/28 10:21:59;;;;;;;2.93;1.40;;;23.20;93.60;;;;;;4999694;28;20512;-74
2022/07/28 10:24:28;;;;;;;2.53;1.10;;;23.00;93.10;;;;;;4997885;28;20240;-75
2022/07/28 10:26:56;;;;;;;5.93;1.40;;;22.90;93.30;;;;;;4997205;28;20196;-73
2022/07/28 10:29:23;;;;;;;5.40;1.33;;;22.80;93.20;;;;;;4995429;28;20569;-75
2022/07/28 10:31:56;;;;;;;5.67;1.07;;;23.60;92.90;;;;;;5003207;28;20189;-75
2022/07/28 10:34:28;;;;;;;1.63;1.20;;;22.70;93.40;;;;;;4997117;28;20572;-76
2022/07/28 10:36:54;;;;;;;3.40;1.20;;;22.60;93.40;;;;;;4995638;28;20269;-75
2022/07/28 10:39:23;;;;;;;2.80;1.30;;;22.60;93.50;;;;;;4998621;28;20605;-76
2022/07/28 10:41:50;;;;;;;2.53;1.60;;;22.00;93.50;;;;;;5009949;28;20181;-75
2022/07/28 10:44:18;;;;;;;3.63;1.40;;;-40.00;57.90;;;;;;4995438;28;20181;-75
2022/07/28 10:46:45;;;;;;;2.10;0.90;;;-40.00;58.40;;;;;;4997549;28;20226;-75
2022/07/28 10:49:13;;;;;;;1.80;1.10;;;-40.00;56.10;;;;;;5001805;28;20189;-75
2022/07/28 10:51:41;;;;;;;3.40;1.23;;;-39.20;56.50;;;;;;5007639;28;20594;-75
2022/07/28 10:54:17;;;;;;;2.67;1.30;;;-40.00;55.80;;;;;;5004217;28;20216;-77
2022/07/28 10:56:45;;;;;;;3.80;1.30;;;-40.00;56.90;;;;;;5001383;28;20207;-78
2022/07/28 10:59:45;;;;;;;4.67;1.93;;;-40.00;56.20;;;;;;5000315;28;20205;-75
2022/07/28 11:02:41;;;;;;;3.00;1.30;;;-40.00;55.70;;;;;;4998967;28;20186;-76
2022/07/28 11:05:28;;;;;;;2.53;1.50;;;-40.00;56.30;;;;;;5003729;28;20186;-76
2022/07/28 11:07:56;;;;;;;2.87;1.23;;;-37.20;58.20;;;;;;4998429;28;20260;-77
2022/07/28 11:10:22;;;;;;;1.80;0.80;;;-29.60;62.70;;;;;;5000995;28;20539;-75
2022/07/28 11:12:53;;;;;;;8.87;2.27;;;-29.40;62.20;;;;;;5001933;28;20205;-75
2022/07/28 11:15:30;;;;;;;2.60;1.20;;;-29.00;63.70;;;;;;4998376;28;20217;-75
2022/07/28 11:18:07;;;;;;;3.97;1.57;;;-29.10;64.80;;;;;;5006946;28;20215;-78
2022/07/28 11:20:51;;;;;;;2.83;1.10;;;-27.10;65.70;;;;;;5005360;28;20190;-76
2022/07/28 11:23:41;;;;;;;1.30;1.20;;;-30.40;62.20;;;;;;5008152;28;20181;-76
2022/07/28 11:26:22;;;;;;;1.27;1.20;;;-28.70;63.60;;;;;;5004721;28;20186;-75
2022/07/28 11:29:03;;;;;;;5.57;2.17;;;-40.00;56.20;;;;;;5002881;28;20196;-74
2022/07/28 11:31:44;;;;;;;4.43;1.30;;;-40.00;56.60;;;;;;4998332;28;20562;-77
2022/07/28 11:34:18;;;;;;;2.33;1.40;;;-40.00;57.70;;;;;;4998271;28;20202;-76
2022/07/28 11:37:01;;;;;;;5.73;1.53;;;-40.00;56.10;;;;;;4997910;28;20918;-75
2022/07/28 11:39:32;;;;;;;4.10;1.30;;;25.00;91.90;;;;;;4998202;28;20198;-75
2022/07/28 11:41:59;;;;;;;4.33;1.97;;;25.30;92.30;;;;;;4998199;28;20193;-75
2022/07/28 11:44:24;;;;;;;3.07;1.10;;;-40.00;52.90;;;;;;4998258;28;20186;-75
2022/07/28 11:46:50;;;;;;;2.40;1.00;;;-40.00;54.00;;;;;;4997673;28;20202;-76
2022/07/28 11:49:19;;;;;;;1.57;1.10;;;-40.00;51.20;;;;;;5010342;28;20608;-76
2022/07/28 11:52:11;;;;;;;4.23;1.00;;;-40.00;52.00;;;;;;4997631;28;20193;-75
2022/07/28 11:54:38;;;;;;;1.47;1.10;;;-38.60;51.90;;;;;;4997631;28;20335;-77
2022/07/28 11:57:08;;;;;;;1.77;1.20;;;-40.00;50.90;;;;;;5005157;28;20178;-76
2022/07/28 11:59:47;;;;;;;5.90;2.03;;;-31.10;52.10;;;;;;5011672;28;20177;-77
2022/07/28 12:02:18;;;;;;;4.43;1.77;;;27.70;83.20;;;;;;4996451;28;20474;-76
2022/07/28 12:04:44;;;;;;;2.63;1.50;;;25.50;76.50;;;;;;4998219;28;20206;-76
2022/07/28 12:07:12;;;;;;;2.90;1.67;;;26.90;80.20;;;;;;5003240;28;20213;-73
2022/07/28 12:09:38;;;;;;;2.60;1.13;;;24.50;80.60;;;;;;4996881;28;20488;-75
2022/07/28 12:12:07;;;;;;;11.87;2.43;;;27.10;84.60;;;;;;4997781;28;20190;-74
2022/07/28 12:14:38;;;;;;;7.80;1.63;;;27.20;84.90;;;;;;5001326;28;20217;-74
2022/07/28 12:17:04;;;;;;;10.90;2.00;;;26.90;81.40;;;;;;5002828;28;20194;-76
2022/07/28 12:19:30;;;;;;;3.63;1.60;;;27.00;82.70;;;;;;5005104;28;20179;-76
2022/07/28 12:21:56;;;;;;;3.97;2.10;;;25.60;82.70;;;;;;5001044;28;20219;-75
2022/07/28 12:24:33;;;;;;;2.60;1.20;;;25.70;83.70;;;;;;4997557;28;20601;-74
2022/07/28 12:26:59;;;;;;;2.57;0.90;;;25.50;86.50;;;;;;5000839;28;20177;-74
2022/07/28 12:29:30;;;;;;;2.67;1.13;;;24.90;83.50;;;;;;5000136;28;20181;-75
2022/07/28 12:32:02;;;;;;;4.83;1.47;;;24.90;82.70;;;;;;4998701;28;20472;-77
2022/07/28 12:34:29;;;;;;;8.17;1.53;;;25.80;84.30;;;;;;4997465;28;20197;-75
2022/07/28 12:36:57;;;;;;;3.87;1.57;;;26.80;84.40;;;;;;4997460;28;20178;-76
2022/07/28 12:39:24;;;;;;;5.23;1.40;;;27.60;83.80;;;;;;4997287;28;20178;-75
2022/07/28 12:42:04;;;;;;;5.90;2.57;;;27.50;82.30;;;;;;4997446;28;20184;-77
2022/07/28 12:44:34;;;;;;;2.20;1.10;;;27.40;81.30;;;;;;5007096;28;20189;-76
2022/07/28 12:47:01;;;;;;;3.17;1.30;;;27.10;81.00;;;;;;4996901;28;20629;-76
2022/07/28 12:49:27;;;;;;;1.87;1.00;;;27.10;81.70;;;;;;4997514;28;20257;-75
2022/07/28 12:51:53;;;;;;;2.43;1.47;;;27.30;82.20;;;;;;5008822;28;20560;-76
2022/07/28 12:54:34;;;;;;;4.73;1.10;;;27.20;80.40;;;;;;4997073;28;20216;-77
2022/07/28 12:56:59;;;;;;;2.00;1.67;;;27.20;77.30;;;;;;4997501;28;20186;-76
2022/07/28 12:59:35;;;;;;;5.37;1.27;;;29.40;79.20;;;;;;4998893;28;20178;-76